Time;durP1;ratioP1;P1;durP2;ratioP2;P2;SDS_P1;SDS_P2;PMS_P1;PMS_P2;Temp;Humidity;BMP_temperature;BMP_pressure;BME280_temperature;BME280_humidity;BME280_pressure;Samples;Min_cycle;Max_cycle;Signal;HPM_P1;HPM_P2
2021/12/08 00:00:33;;;;;;;7.10;2.83;;;;;;;2.93;99.29;99274.09;1034942;28;20838;-78
2021/12/08 00:01:08;;;;;;;9.73;2.65;;;;;;;2.97;99.00;99271.88;1034599;28;20440;-79
2021/12/08 00:01:40;;;;;;;12.82;3.00;;;;;;;2.94;99.08;99259.94;1034621;28;20445;-79
2021/12/08 00:02:12;;;;;;;9.48;2.67;;;;;;;2.93;99.10;99265.41;1032975;28;20454;-78
2021/12/08 00:02:44;;;;;;;8.88;2.95;;;;;;;2.92;99.39;99255.91;1028681;28;20984;-78
2021/12/08 00:03:17;;;;;;;14.75;4.90;;;;;;;2.86;99.18;99256.72;1030932;28;20469;-79
2021/12/08 00:03:50;;;;;;;5.78;3.55;;;;;;;2.87;99.11;99271.47;1033940;28;20468;-77
2021/12/08 00:04:21;;;;;;;7.70;2.33;;;;;;;2.95;98.93;99266.00;1036154;28;20460;-79
2021/12/08 00:04:53;;;;;;;11.40;3.28;;;;;;;2.93;98.76;99258.31;1035063;28;20455;-79
2021/12/08 00:05:25;;;;;;;13.38;3.65;;;;;;;2.92;98.93;99263.78;1035135;28;20463;-78
2021/12/08 00:05:58;;;;;;;9.75;2.83;;;;;;;2.88;99.22;99268.66;1029792;28;20827;-79
2021/12/08 00:06:29;;;;;;;7.05;2.50;;;;;;;2.91;99.50;99264.81;1035310;28;20506;-79
2021/12/08 00:07:02;;;;;;;4.18;2.47;;;;;;;2.90;98.96;99264.00;1035249;28;20457;-78
2021/12/08 00:07:34;;;;;;;10.95;3.13;;;;;;;2.90;99.22;99255.28;1035597;28;20459;-78
2021/12/08 00:08:07;;;;;;;8.93;2.90;;;;;;;2.93;99.27;99254.88;1031158;28;20473;-79
2021/12/08 00:08:45;;;;;;;10.45;3.03;;;;;;;2.92;99.30;99254.06;1030790;28;20465;-78
2021/12/08 00:09:26;;;;;;;7.13;2.95;;;;;;;2.94;98.90;99243.34;1031754;28;20445;-78
2021/12/08 00:10:14;;;;;;;5.80;2.00;;;;;;;2.93;99.06;99258.31;1035087;28;21027;-79
2021/12/08 00:13:08;;;;;;;6.38;2.65;;;;;;;2.92;99.06;99242.75;1036411;28;20484;-77
2021/12/08 00:13:40;;;;;;;7.07;2.92;;;;;;;2.92;98.74;99250.63;1034494;28;20461;-78
2021/12/08 00:14:12;;;;;;;8.02;2.63;;;;;;;2.91;99.03;99241.13;1031187;28;20484;-79
2021/12/08 00:14:43;;;;;;;7.15;3.35;;;;;;;2.92;98.84;99240.13;1033991;28;20437;-77
2021/12/08 00:15:15;;;;;;;9.93;2.88;;;;;;;2.92;98.79;99245.38;1035687;28;20445;-78
2021/12/08 00:15:50;;;;;;;8.13;2.55;;;;;;;2.91;98.92;99233.25;1035431;28;20452;-78
2021/12/08 00:16:27;;;;;;;10.05;2.35;;;;;;;2.88;99.07;99238.91;1035125;28;20835;-77
2021/12/08 00:16:58;;;;;;;8.20;2.92;;;;;;;2.91;99.03;99249.03;1035041;28;20046;-77
2021/12/08 00:17:30;;;;;;;9.30;2.85;;;;;;;2.94;99.05;99238.09;1037061;28;20944;-79
2021/12/08 00:18:03;;;;;;;9.48;3.20;;;;;;;2.95;98.62;99244.97;1039135;28;20468;-80
2021/12/08 00:18:35;;;;;;;11.18;2.92;;;;;;;2.93;98.79;99249.63;1036165;28;20471;-76
2021/12/08 00:19:07;;;;;;;6.68;2.65;;;;;;;2.94;98.77;99238.91;1035438;28;20468;-80
2021/12/08 00:19:39;;;;;;;11.32;3.08;;;;;;;2.94;99.05;99243.34;1034658;28;21061;-79
2021/12/08 00:20:10;;;;;;;8.35;3.17;;;;;;;2.92;98.87;99229.59;1034517;28;20476;-79
2021/12/08 00:20:45;;;;;;;4.75;2.42;;;;;;;2.91;98.77;99249.03;1028540;28;20505;-80
2021/12/08 00:21:18;;;;;;;5.53;2.75;;;;;;;2.92;98.87;99240.13;1026788;28;20476;-79
2021/12/08 00:21:50;;;;;;;9.82;2.70;;;;;;;2.91;98.75;99251.66;1027965;28;20482;-79
2021/12/08 00:22:22;;;;;;;9.25;3.00;;;;;;;2.87;99.40;99258.34;1028391;28;20540;-79
2021/12/08 00:22:54;;;;;;;9.55;3.67;;;;;;;2.87;98.95;99261.78;1031737;28;20470;-79
2021/12/08 00:23:26;;;;;;;7.82;3.38;;;;;;;2.89;99.23;99248.41;1030788;28;20465;-79
2021/12/08 00:23:58;;;;;;;13.93;3.47;;;;;;;2.89;99.24;99245.78;1028073;28;20951;-79
2021/12/08 00:24:29;;;;;;;6.38;2.50;;;;;;;2.89;99.01;99240.53;1029156;28;20426;-78
2021/12/08 00:25:01;;;;;;;9.10;2.92;;;;;;;2.88;99.24;99249.44;1030300;28;20470;-78
2021/12/08 00:25:34;;;;;;;7.10;2.67;;;;;;;2.88;99.37;99234.47;1029328;28;20438;-78
2021/12/08 00:26:06;;;;;;;19.02;3.25;;;;;;;2.89;99.17;99245.78;1034833;28;20539;-78
2021/12/08 00:26:38;;;;;;;6.22;3.90;;;;;;;2.94;99.24;99227.56;1037679;28;20452;-78
2021/12/08 00:27:10;;;;;;;7.65;3.15;;;;;;;2.95;98.95;99250.22;1038451;28;20834;-79
2021/12/08 00:27:41;;;;;;;6.85;3.08;;;;;;;2.94;99.01;99224.94;1039070;28;20451;-79
2021/12/08 00:28:13;;;;;;;7.35;2.85;;;;;;;2.92;98.98;99230.41;1039388;28;20838;-79
2021/12/08 00:28:44;;;;;;;9.65;2.53;;;;;;;2.87;99.13;99227.59;1028711;28;20477;-79
2021/12/08 00:29:16;;;;;;;9.45;3.75;;;;;;;2.89;99.02;99230.00;1033898;28;20452;-78
2021/12/08 00:29:48;;;;;;;6.38;2.47;;;;;;;2.88;99.25;99238.91;1037359;28;20460;-78
2021/12/08 00:30:19;;;;;;;9.02;2.72;;;;;;;2.91;99.20;99238.50;1030958;28;20465;-79
2021/12/08 00:30:55;;;;;;;9.60;2.85;;;;;;;2.89;99.22;99232.66;1034107;28;20453;-79
2021/12/08 00:31:26;;;;;;;5.32;3.10;;;;;;;2.86;98.95;99235.69;1030953;28;20468;-79
2021/12/08 00:31:59;;;;;;;6.63;3.38;;;;;;;2.83;99.09;99236.09;1034420;28;20516;-79
2021/12/08 00:32:32;;;;;;;9.48;3.38;;;;;;;2.83;99.10;99236.09;1039190;28;20460;-78
2021/12/08 00:33:05;;;;;;;6.03;2.33;;;;;;;2.84;99.11;99237.72;1036396;28;20464;-79
2021/12/08 00:33:36;;;;;;;6.35;2.85;;;;;;;2.85;99.11;99224.38;1037048;28;20463;-78
2021/12/08 00:34:09;;;;;;;7.35;3.03;;;;;;;2.87;99.33;99232.03;1031027;28;20461;-79
2021/12/08 00:34:40;;;;;;;9.80;3.22;;;;;;;2.86;99.19;99238.31;1034083;28;20448;-79
2021/12/08 00:35:12;;;;;;;6.10;2.70;;;;;;;2.87;99.28;99234.66;1035351;28;20460;-77
2021/12/08 00:35:46;;;;;;;4.20;1.98;;;;;;;2.92;98.97;99250.63;1027140;28;20430;-78
2021/12/08 00:36:30;;;;;;;5.43;3.00;;;;;;;2.94;99.13;99238.09;1030471;28;21085;-79
2021/12/08 00:37:02;;;;;;;4.22;2.63;;;;;;;2.92;98.93;99238.28;1024738;28;20450;-79
2021/12/08 00:37:34;;;;;;;5.72;2.95;;;;;;;2.96;99.13;99242.13;1029980;28;20445;-79
2021/12/08 00:38:08;;;;;;;5.78;2.85;;;;;;;2.91;99.15;99243.75;1037589;28;20469;-78
2021/12/08 00:38:39;;;;;;;11.85;2.90;;;;;;;2.88;99.26;99229.19;1034226;28;20947;-79
2021/12/08 00:39:11;;;;;;;9.10;2.78;;;;;;;2.85;99.03;99234.06;1030700;28;21073;-79
2021/12/08 00:39:43;;;;;;;16.48;3.45;;;;;;;2.85;99.38;99231.44;1033800;28;20554;-79
2021/12/08 00:40:17;;;;;;;10.43;3.85;;;;;;;2.86;99.30;99251.47;1036385;28;20441;-76
2021/12/08 00:40:50;;;;;;;5.88;3.47;;;;;;;2.88;99.61;99233.66;1036221;28;20684;-79
2021/12/08 00:41:21;;;;;;;7.35;3.00;;;;;;;2.87;99.37;99229.41;1035014;28;20471;-79
2021/12/08 00:41:54;;;;;;;9.07;3.50;;;;;;;2.87;99.45;99232.03;1033252;28;20476;-79
2021/12/08 00:42:26;;;;;;;8.80;3.50;;;;;;;2.85;99.35;99229.63;1031009;28;20469;-79
2021/12/08 00:42:57;;;;;;;5.43;3.08;;;;;;;2.85;99.60;99228.81;1032638;28;20471;-78
2021/12/08 00:43:29;;;;;;;7.30;3.10;;;;;;;2.79;99.76;99235.72;1036102;28;20447;-79
2021/12/08 00:44:01;;;;;;;7.70;3.30;;;;;;;2.84;99.59;99242.97;1038280;28;20450;-79
2021/12/08 00:44:32;;;;;;;6.75;3.35;;;;;;;2.84;99.40;99217.50;1034264;28;20453;-78
2021/12/08 00:45:06;;;;;;;10.05;4.00;;;;;;;2.82;99.94;99223.97;1039325;28;20436;-79
2021/12/08 00:45:37;;;;;;;8.43;3.65;;;;;;;2.83;99.84;99222.94;1034555;28;20465;-79
2021/12/08 00:46:09;;;;;;;8.32;3.65;;;;;;;2.85;99.49;99216.47;1035933;28;20978;-78
2021/12/08 00:46:41;;;;;;;10.70;4.22;;;;;;;2.84;99.74;99217.50;1034352;28;20547;-79
2021/12/08 00:47:14;;;;;;;10.95;3.40;;;;;;;2.87;99.38;99217.06;1030336;28;20835;-78
2021/12/08 00:47:46;;;;;;;9.55;3.10;;;;;;;2.88;99.57;99221.31;1026888;28;20461;-80
2021/12/08 00:48:18;;;;;;;12.52;3.03;;;;;;;2.92;99.57;99224.34;1023288;28;20798;-79
2021/12/08 00:48:51;;;;;;;7.85;3.30;;;;;;;2.90;99.35;99210.59;1027050;28;20426;-79
2021/12/08 00:49:22;;;;;;;9.43;3.05;;;;;;;2.87;99.62;99208.38;1031273;28;20465;-78
2021/12/08 00:49:54;;;;;;;9.82;2.83;;;;;;;2.94;99.12;99219.69;1027707;28;20465;-78
2021/12/08 00:50:29;;;;;;;6.55;3.35;;;;;;;2.93;99.00;99215.44;1030575;28;20480;-78
2021/12/08 00:51:01;;;;;;;11.32;3.20;;;;;;;2.92;98.86;99214.63;1024742;28;20451;-79
2021/12/08 00:51:33;;;;;;;11.15;3.33;;;;;;;2.92;99.18;99214.63;1032315;28;20461;-79
2021/12/08 00:52:06;;;;;;;9.32;3.38;;;;;;;2.92;98.97;99213.81;1036562;28;20784;-79
2021/12/08 00:52:38;;;;;;;4.18;2.90;;;;;;;2.85;99.36;99207.78;1038894;28;20460;-79
2021/12/08 00:53:10;;;;;;;10.52;3.55;;;;;;;2.83;99.04;99215.06;1039470;28;20467;-79
2021/12/08 00:53:41;;;;;;;6.22;2.83;;;;;;;2.86;99.09;99214.66;1039042;28;20475;-79
2021/12/08 00:54:13;;;;;;;4.47;2.90;;;;;;;2.88;99.19;99212.63;1037954;28;20523;-79
2021/12/08 00:54:44;;;;;;;9.43;4.30;;;;;;;2.87;99.54;99218.91;1033617;28;21544;-79
2021/12/08 00:55:16;;;;;;;8.38;3.55;;;;;;;2.84;99.69;99209.59;1035472;28;20465;-79
2021/12/08 00:55:47;;;;;;;8.55;3.20;;;;;;;2.86;99.42;99207.56;1035391;28;20448;-79
2021/12/08 00:56:19;;;;;;;8.20;3.67;;;;;;;2.85;99.59;99208.59;1035387;28;20456;-78
2021/12/08 00:56:50;;;;;;;5.15;3.65;;;;;;;2.85;99.77;99210.41;1039481;28;20799;-78
2021/12/08 00:57:22;;;;;;;10.20;3.80;;;;;;;2.87;99.57;99224.16;1035463;28;20820;-79
2021/12/08 00:57:54;;;;;;;8.80;3.30;;;;;;;2.83;99.60;99220.31;1035316;28;20464;-79
2021/12/08 00:58:26;;;;;;;9.98;3.40;;;;;;;2.84;99.68;99214.06;1033776;28;20831;-79
2021/12/08 00:58:58;;;;;;;7.00;3.63;;;;;;;2.83;99.10;99218.50;1034781;28;21060;-79
2021/12/08 00:59:33;;;;;;;10.13;3.42;;;;;;;2.87;99.72;99222.34;1034792;28;20472;-78
2021/12/08 01:00:30;;;;;;;10.57;3.47;;;;;;;2.86;99.90;99225.16;1034895;28;20448;-79
2021/12/08 01:01:03;;;;;;;7.00;3.28;;;;;;;2.87;99.58;99221.53;1035077;28;20497;-79
2021/12/08 01:01:35;;;;;;;10.45;3.70;;;;;;;2.83;99.36;99217.69;1030227;28;20480;-79
2021/12/08 01:02:07;;;;;;;7.93;3.90;;;;;;;2.90;99.89;99221.09;1026604;28;20548;-79
2021/12/08 01:02:39;;;;;;;12.18;4.18;;;;;;;2.86;99.81;99230.44;1028021;28;21086;-79
2021/12/08 01:03:11;;;;;;;10.57;4.47;;;;;;;2.85;99.74;99228.81;1030608;28;20477;-79
2021/12/08 01:03:45;;;;;;;7.65;3.78;;;;;;;2.86;99.56;99217.28;1031394;28;20533;-78
2021/12/08 01:04:17;;;;;;;9.68;3.97;;;;;;;2.86;99.81;99214.66;1032134;28;20835;-79
2021/12/08 01:04:48;;;;;;;14.07;4.47;;;;;;;2.83;99.74;99215.88;1030588;28;20481;-80
2021/12/08 01:05:24;;;;;;;17.40;4.28;;;;;;;2.85;99.62;99219.09;1034817;28;21028;-78
2021/12/08 01:05:56;;;;;;;13.15;3.53;;;;;;;2.85;100.00;99210.41;1035932;28;20457;-79
2021/12/08 01:06:28;;;;;;;5.13;3.38;;;;;;;2.84;100.00;99216.69;1035173;28;20542;-79
2021/12/08 01:07:01;;;;;;;9.48;3.85;;;;;;;2.83;100.00;99215.06;1034821;28;20471;-79
2021/12/08 01:07:33;;;;;;;8.20;3.90;;;;;;;2.85;99.87;99227.00;1032625;28;20473;-79
2021/12/08 01:08:06;;;;;;;6.97;3.63;;;;;;;2.82;100.00;99223.97;1031917;28;20592;-79
2021/12/08 01:08:37;;;;;;;13.90;4.10;;;;;;;2.81;100.00;99214.47;1034821;28;20464;-79
2021/12/08 01:09:11;;;;;;;6.93;3.60;;;;;;;2.76;100.00;99221.16;1031215;28;20813;-79
2021/12/08 01:09:43;;;;;;;6.25;3.88;;;;;;;2.79;100.00;99222.56;1036236;28;20452;-79
2021/12/08 01:10:19;;;;;;;9.98;5.03;;;;;;;2.76;100.00;99223.78;1034815;28;20495;-79
2021/12/08 01:11:12;;;;;;;7.28;3.85;;;;;;;2.76;100.00;99221.16;1029943;28;20559;-79
2021/12/08 01:11:44;;;;;;;7.05;3.88;;;;;;;2.76;100.00;99215.09;1033279;28;20045;-79
2021/12/08 01:12:15;;;;;;;7.63;4.57;;;;;;;2.76;100.00;99215.09;1031185;28;20449;-78
2021/12/08 01:12:47;;;;;;;7.30;4.03;;;;;;;2.78;100.00;99202.53;1030321;28;20471;-79
2021/12/08 01:13:20;;;;;;;7.85;4.22;;;;;;;2.75;100.00;99211.66;1023636;28;20470;-79
2021/12/08 01:13:51;;;;;;;7.35;4.00;;;;;;;2.79;100.00;99215.47;1022379;28;20454;-79
2021/12/08 01:14:23;;;;;;;11.05;4.32;;;;;;;2.81;100.00;99223.16;1023382;28;20457;-79
2021/12/08 01:14:55;;;;;;;10.48;4.15;;;;;;;2.79;100.00;99223.38;1023903;28;20472;-78
2021/12/08 01:15:28;;;;;;;10.02;4.22;;;;;;;2.80;100.00;99211.03;1027549;28;20437;-79
2021/12/08 01:15:59;;;;;;;8.77;4.78;;;;;;;2.78;100.00;99218.31;1027568;28;21016;-79
2021/12/08 01:16:31;;;;;;;9.85;4.25;;;;;;;2.79;100.00;99226.00;1030914;28;20449;-79
2021/12/08 01:17:04;;;;;;;8.05;4.68;;;;;;;2.84;100.00;99214.06;1027326;28;20440;-78
2021/12/08 01:17:38;;;;;;;8.88;4.28;;;;;;;2.84;100.00;99224.56;1027814;28;20813;-78
2021/12/08 01:18:10;;;;;;;11.27;4.80;;;;;;;2.81;100.00;99228.41;1030694;28;20464;-79
2021/12/08 01:18:41;;;;;;;8.85;4.88;;;;;;;2.82;100.00;99226.59;1027722;28;20469;-79
2021/12/08 01:19:13;;;;;;;10.25;4.40;;;;;;;2.80;100.00;99229.44;1026375;28;20446;-79
2021/12/08 01:19:45;;;;;;;11.98;4.95;;;;;;;2.85;100.00;99228.81;1027093;28;20466;-79
2021/12/08 01:20:17;;;;;;;8.13;4.47;;;;;;;2.84;100.00;99219.31;1030238;28;20457;-79
2021/12/08 01:20:50;;;;;;;10.57;4.85;;;;;;;2.83;100.00;99222.94;1031972;28;20457;-79
2021/12/08 01:21:22;;;;;;;12.05;4.82;;;;;;;2.80;100.00;99229.44;1028467;28;20477;-79
2021/12/08 01:21:54;;;;;;;12.32;4.55;;;;;;;2.81;100.00;99223.16;1031544;28;20460;-78
2021/12/08 01:22:25;;;;;;;9.18;4.95;;;;;;;2.83;100.00;99220.31;1035174;28;20465;-79
2021/12/08 01:22:57;;;;;;;8.35;4.43;;;;;;;2.83;100.00;99225.59;1035005;28;20456;-79
2021/12/08 01:23:28;;;;;;;8.60;4.18;;;;;;;2.84;100.00;99221.94;1035165;28;20451;-79
2021/12/08 01:24:00;;;;;;;11.00;4.88;;;;;;;2.84;100.00;99227.19;1034986;28;20465;-79
2021/12/08 01:24:31;;;;;;;10.68;4.57;;;;;;;2.86;100.00;99238.31;1030800;28;20514;-79
2021/12/08 01:25:04;;;;;;;13.65;5.03;;;;;;;2.89;100.00;99232.66;1031019;28;20465;-79
2021/12/08 01:25:36;;;;;;;10.02;5.07;;;;;;;2.90;100.00;99232.44;1032238;28;20795;-79
2021/12/08 01:26:08;;;;;;;9.55;4.40;;;;;;;2.91;100.00;99235.88;1038624;28;20472;-79
2021/12/08 01:26:40;;;;;;;10.82;5.93;;;;;;;2.86;100.00;99230.44;1035539;28;20815;-76
2021/12/08 01:27:11;;;;;;;9.63;4.32;;;;;;;2.85;100.00;99236.69;1030839;28;20452;-76
2021/12/08 01:27:43;;;;;;;10.05;4.85;;;;;;;2.86;100.00;99225.97;1030581;28;20465;-76
2021/12/08 01:28:19;;;;;;;9.15;4.30;;;;;;;2.84;100.00;99232.47;1031296;28;20445;-76
2021/12/08 01:28:52;;;;;;;18.70;5.47;;;;;;;2.85;100.00;99231.44;1031243;28;20799;-76
2021/12/08 01:29:23;;;;;;;11.63;5.28;;;;;;;2.88;100.00;99228.41;1034960;28;20824;-76
2021/12/08 01:29:55;;;;;;;20.40;6.07;;;;;;;2.87;100.00;99230.22;1034555;28;20464;-76
2021/12/08 01:30:26;;;;;;;12.57;4.60;;;;;;;2.87;100.00;99230.22;1034817;28;20448;-75
2021/12/08 01:31:04;;;;;;;14.95;4.65;;;;;;;2.88;100.00;99223.13;1035383;28;20950;-76
2021/12/08 01:31:39;;;;;;;10.68;5.97;;;;;;;2.90;100.00;99213.22;1026748;28;20454;-76
2021/12/08 01:32:11;;;;;;;7.55;4.75;;;;;;;2.91;100.00;99220.91;1027793;28;20478;-76
2021/12/08 01:32:43;;;;;;;7.95;4.97;;;;;;;2.89;100.00;99219.50;1026638;28;20554;-76
2021/12/08 01:33:15;;;;;;;8.52;5.18;;;;;;;2.88;100.00;99217.88;1028023;28;20470;-75
2021/12/08 01:33:46;;;;;;;6.65;4.50;;;;;;;2.93;100.00;99225.94;1028077;28;20446;-76
2021/12/08 01:34:18;;;;;;;14.80;5.10;;;;;;;2.92;100.00;99224.34;1028207;28;20464;-77
2021/12/08 01:34:52;;;;;;;9.98;4.60;;;;;;;2.93;100.00;99231.22;1030937;28;20469;-76
2021/12/08 01:35:24;;;;;;;10.93;5.20;;;;;;;2.92;100.00;99234.84;1027420;28;20450;-76
2021/12/08 01:35:56;;;;;;;14.85;5.10;;;;;;;2.90;100.00;99229.81;1027886;28;20461;-76
2021/12/08 01:36:27;;;;;;;14.38;5.40;;;;;;;2.86;100.00;99231.22;1030927;28;20480;-76
2021/12/08 01:36:59;;;;;;;9.30;4.93;;;;;;;2.88;100.00;99229.19;1031387;28;20484;-76
2021/12/08 01:37:30;;;;;;;7.43;5.60;;;;;;;2.87;100.00;99226.78;1034620;28;20469;-76
2021/12/08 01:38:03;;;;;;;12.23;5.90;;;;;;;2.88;100.00;99225.78;1035053;28;20435;-76
2021/12/08 01:38:35;;;;;;;10.43;4.93;;;;;;;2.89;100.00;99227.38;1034129;28;20461;-76
2021/12/08 01:39:07;;;;;;;11.10;5.90;;;;;;;2.86;100.00;99225.97;1030738;28;20807;-76
2021/12/08 01:39:40;;;;;;;9.85;5.43;;;;;;;2.83;100.00;99225.59;1027160;28;20467;-76
2021/12/08 01:40:12;;;;;;;12.18;6.32;;;;;;;2.81;100.00;99230.25;1026079;28;20489;-76
2021/12/08 01:40:44;;;;;;;12.20;5.45;;;;;;;2.84;100.00;99232.47;1026353;28;20447;-75
2021/12/08 01:41:16;;;;;;;10.25;5.22;;;;;;;2.85;100.00;99227.00;1035759;28;20471;-76
2021/12/08 01:41:48;;;;;;;12.55;5.75;;;;;;;2.84;100.00;99227.19;1038786;28;20436;-76
2021/12/08 01:42:28;;;;;;;11.63;5.82;;;;;;;2.85;100.00;99229.63;1039060;28;20606;-76
2021/12/08 01:43:02;;;;;;;9.80;4.53;;;;;;;2.87;100.00;99229.41;1035089;28;20536;-76
2021/12/08 01:45:56;;;;;;;6.15;4.63;;;;;;;2.89;100.00;99230.00;1035342;28;20049;-76
2021/12/08 01:46:21;;;;;;;10.68;5.32;;;;;;;2.82;100.00;99242.38;1030607;28;20460;-76
2021/12/08 01:46:54;;;;;;;10.70;5.82;;;;;;;2.84;100.00;99248.22;1027445;28;20604;-76
2021/12/08 01:47:29;;;;;;;11.50;5.75;;;;;;;2.86;100.00;99241.75;1031171;28;20473;-76
2021/12/08 01:48:05;;;;;;;11.25;4.97;;;;;;;2.88;100.00;99237.09;1026966;28;20465;-76
2021/12/08 01:48:39;;;;;;;10.90;5.32;;;;;;;2.91;100.00;99233.25;1026716;28;20473;-76
2021/12/08 01:49:11;;;;;;;13.40;5.95;;;;;;;2.93;100.00;99237.28;1024432;28;20471;-76
2021/12/08 01:49:43;;;;;;;8.70;5.32;;;;;;;2.95;100.00;99237.06;1028311;28;20450;-76
2021/12/08 01:50:14;;;;;;;13.25;6.00;;;;;;;2.93;100.00;99231.22;1028620;28;20466;-79
2021/12/08 01:50:51;;;;;;;10.82;5.35;;;;;;;2.93;100.00;99236.47;1027561;28;20457;-76
2021/12/08 01:51:25;;;;;;;7.65;5.38;;;;;;;2.89;100.00;99235.28;1030133;28;20476;-76
2021/12/08 01:51:57;;;;;;;10.80;5.03;;;;;;;2.91;100.00;99233.25;1032651;28;20847;-76
2021/12/08 01:52:28;;;;;;;11.35;5.10;;;;;;;2.92;100.00;99240.13;1036030;28;20440;-79
2021/12/08 01:53:00;;;;;;;12.93;5.93;;;;;;;2.85;100.00;99234.06;1034551;28;20467;-79
2021/12/08 01:53:32;;;;;;;8.27;5.80;;;;;;;2.84;100.00;99228.00;1030758;28;20693;-79
2021/12/08 01:54:06;;;;;;;9.60;5.75;;;;;;;2.85;100.00;99229.63;1031380;28;20465;-79
2021/12/08 01:54:45;;;;;;;8.60;5.82;;;;;;;2.86;100.00;99236.50;1035308;28;20461;-79
2021/12/08 01:55:17;;;;;;;10.18;5.20;;;;;;;2.86;100.00;99235.69;1035002;28;20050;-79
2021/12/08 01:55:49;;;;;;;10.07;5.30;;;;;;;2.91;100.00;99235.88;1037384;28;20459;-79
2021/12/08 01:56:23;;;;;;;8.60;5.45;;;;;;;2.86;100.00;99227.78;1035268;28;20456;-79
2021/12/08 01:56:57;;;;;;;8.65;6.22;;;;;;;2.85;100.00;99239.34;1035156;28;20871;-79
2021/12/08 01:57:28;;;;;;;11.57;5.03;;;;;;;2.91;100.00;99241.13;1034305;28;20469;-78
2021/12/08 01:58:00;;;;;;;8.15;5.85;;;;;;;2.88;100.00;99234.47;1032252;28;20823;-79
2021/12/08 01:58:32;;;;;;;9.63;6.45;;;;;;;2.88;100.00;99238.91;1031038;28;20468;-79
2021/12/08 01:59:06;;;;;;;11.88;6.40;;;;;;;2.91;100.00;99231.41;1031633;28;20456;-79
2021/12/08 01:59:37;;;;;;;10.82;6.13;;;;;;;2.89;100.00;99235.28;1035448;28;20829;-79
2021/12/08 02:00:17;;;;;;;11.80;5.82;;;;;;;2.92;100.00;99237.47;1035880;28;20455;-79
2021/12/08 02:00:56;;;;;;;15.48;6.60;;;;;;;2.89;100.00;99224.75;1033858;28;20438;-79
2021/12/08 02:01:29;;;;;;;12.52;6.20;;;;;;;2.93;100.00;99231.22;1034087;28;21685;-79
2021/12/08 02:02:01;;;;;;;11.50;6.63;;;;;;;2.96;100.00;99228.16;1035864;28;20440;-79
2021/12/08 02:02:33;;;;;;;11.68;6.38;;;;;;;2.95;100.00;99229.19;1036918;28;20523;-79
2021/12/08 02:03:05;;;;;;;12.27;6.03;;;;;;;2.99;100.00;99228.56;1035352;28;20499;-79
2021/12/08 02:03:38;;;;;;;15.38;6.72;;;;;;;2.98;100.00;99223.50;1031813;28;20840;-79
2021/12/08 02:04:11;;;;;;;12.50;6.25;;;;;;;2.97;100.00;99235.03;1025931;28;20586;-79
2021/12/08 02:04:43;;;;;;;10.57;5.90;;;;;;;2.95;100.00;99231.81;1035806;28;20448;-79
2021/12/08 02:05:14;;;;;;;12.00;6.80;;;;;;;2.96;100.00;99228.16;1037646;28;20468;-79
2021/12/08 02:05:46;;;;;;;15.02;6.60;;;;;;;2.97;100.00;99232.41;1036110;28;20970;-76
2021/12/08 02:06:19;;;;;;;13.10;6.38;;;;;;;2.97;100.00;99237.66;1038689;28;20539;-79
2021/12/08 02:06:51;;;;;;;17.52;6.72;;;;;;;2.97;100.00;99232.41;1027600;28;20466;-79
2021/12/08 02:07:23;;;;;;;11.18;6.28;;;;;;;2.95;100.00;99239.69;1023411;28;20517;-79
2021/12/08 02:07:55;;;;;;;11.75;6.35;;;;;;;2.94;100.00;99238.09;1027165;28;20442;-79
2021/12/08 02:08:26;;;;;;;15.18;6.57;;;;;;;2.92;100.00;99238.28;1032564;28;20452;-79
2021/12/08 02:08:58;;;;;;;10.73;6.50;;;;;;;2.91;100.00;99243.75;1039449;28;20458;-79
2021/12/08 02:09:30;;;;;;;10.27;6.13;;;;;;;2.92;100.00;99237.47;1039881;28;20487;-79
2021/12/08 02:10:04;;;;;;;10.10;6.35;;;;;;;2.93;100.00;99233.84;1039808;28;20440;-79
2021/12/08 02:10:37;;;;;;;13.55;7.18;;;;;;;2.93;100.00;99233.84;1034016;28;20563;-79
2021/12/08 02:11:15;;;;;;;9.25;6.82;;;;;;;2.94;100.00;99222.31;1031316;28;20840;-76
2021/12/08 02:11:51;;;;;;;11.05;6.18;;;;;;;2.99;100.00;99225.94;1033403;28;20477;-76
2021/12/08 02:12:23;;;;;;;11.90;6.28;;;;;;;2.99;100.00;99231.19;1034792;28;20460;-79
2021/12/08 02:12:54;;;;;;;12.48;6.38;;;;;;;2.98;100.00;99226.94;1035532;28;20433;-79
2021/12/08 02:13:28;;;;;;;14.00;6.70;;;;;;;2.99;100.00;99230.38;1030677;28;20449;-76
2021/12/08 02:14:01;;;;;;;11.77;7.88;;;;;;;2.98;100.00;99216.44;1028626;28;20457;-76
2021/12/08 02:14:34;;;;;;;10.55;6.13;;;;;;;2.98;100.00;99220.88;1031774;28;20812;-76
2021/12/08 02:15:08;;;;;;;14.63;6.10;;;;;;;3.00;100.00;99227.53;1029644;28;21022;-76
2021/12/08 02:15:40;;;;;;;13.40;6.70;;;;;;;3.01;100.00;99223.09;1035004;28;20476;-76
2021/12/08 02:16:14;;;;;;;11.70;6.50;;;;;;;2.97;100.00;99227.97;1035876;28;21015;-76
2021/12/08 02:16:47;;;;;;;15.43;6.55;;;;;;;2.99;100.00;99225.13;1036080;28;20534;-79
2021/12/08 02:17:21;;;;;;;14.98;7.00;;;;;;;3.04;100.00;99222.72;1036319;28;20464;-76
2021/12/08 02:17:54;;;;;;;18.27;6.68;;;;;;;3.04;100.00;99227.97;1035768;28;20461;-77
2021/12/08 02:18:26;;;;;;;10.88;6.60;;;;;;;3.09;100.00;99225.50;1035829;28;20475;-76
2021/12/08 02:18:58;;;;;;;14.18;6.30;;;;;;;3.06;100.00;99221.47;1037484;28;20436;-76
2021/12/08 02:19:30;;;;;;;11.93;6.30;;;;;;;3.05;100.00;99221.69;1039462;28;20805;-76
2021/12/08 02:20:06;;;;;;;14.30;6.60;;;;;;;3.04;100.00;99220.88;1035742;28;20468;-77
2021/12/08 02:20:37;;;;;;;9.18;6.20;;;;;;;3.06;100.00;99225.94;1035578;28;20440;-77
2021/12/08 02:21:31;;;;;;;15.55;7.32;;;;;;;3.03;100.00;99226.34;1036662;28;20483;-76
2021/12/08 02:22:03;;;;;;;16.13;6.35;;;;;;;3.05;100.00;99224.31;1039042;28;20452;-76
2021/12/08 02:22:38;;;;;;;9.88;6.70;;;;;;;3.06;100.00;99220.66;1036270;28;20467;-77
2021/12/08 02:23:09;;;;;;;10.43;5.63;;;;;;;3.12;100.00;99221.66;1033346;28;20461;-79
2021/12/08 02:23:41;;;;;;;11.38;5.85;;;;;;;3.13;100.00;99221.44;1031377;28;20469;-79
2021/12/08 02:24:14;;;;;;;8.98;5.72;;;;;;;3.13;100.00;99220.66;1026751;28;20833;-79
2021/12/08 02:24:45;;;;;;;7.47;5.38;;;;;;;3.19;100.00;99215.34;1025911;28;20777;-79
2021/12/08 02:25:22;;;;;;;10.82;6.25;;;;;;;3.16;100.00;99214.97;1021219;29;21023;-79
2021/12/08 02:25:53;;;;;;;12.05;5.57;;;;;;;3.16;100.00;99220.22;1017040;29;20827;-79
2021/12/08 02:26:26;;;;;;;10.13;5.85;;;;;;;3.17;100.00;99217.38;1024264;28;20482;-79
2021/12/08 02:26:58;;;;;;;12.43;5.97;;;;;;;3.20;100.00;99216.97;1024434;28;20481;-79
2021/12/08 02:27:32;;;;;;;13.35;5.47;;;;;;;3.16;100.00;99221.03;1029068;28;20825;-79
2021/12/08 02:28:05;;;;;;;12.35;5.68;;;;;;;3.19;100.00;99220.63;1035612;28;20476;-79
2021/12/08 02:28:36;;;;;;;9.85;5.53;;;;;;;3.17;100.00;99216.56;1028127;28;20829;-76
2021/12/08 02:29:19;;;;;;;11.45;6.65;;;;;;;3.20;100.00;99216.97;1032007;28;20477;-79
2021/12/08 02:29:58;;;;;;;9.63;5.50;;;;;;;3.17;100.00;99216.56;1025417;28;20481;-78
2021/12/08 02:30:38;;;;;;;10.25;5.53;;;;;;;3.23;100.00;99218.38;1027335;28;20808;-79
2021/12/08 02:31:14;;;;;;;7.13;5.40;;;;;;;3.23;100.00;99211.28;1030732;28;20485;-79
2021/12/08 02:46:36;;;;;;;8.73;5.85;;;;;;;3.28;100.00;99214.09;1033067;28;20978;-79
2021/12/08 02:47:04;;;;;;;6.00;4.13;;;;;;;3.33;100.00;99227.44;1037526;28;20049;-79
2021/12/08 02:48:26;;;;;;;6.38;4.22;;;;;;;3.40;100.00;99228.22;1027604;28;20469;-79
2021/12/08 02:48:58;;;;;;;8.65;4.18;;;;;;;3.40;100.00;99230.06;1024389;28;20462;-79
2021/12/08 02:49:31;;;;;;;6.93;4.78;;;;;;;3.42;100.00;99231.47;1028563;28;20473;-79
2021/12/08 02:50:03;;;;;;;9.07;4.63;;;;;;;3.44;100.00;99233.88;1033407;28;20441;-79
2021/12/08 02:50:39;;;;;;;7.47;4.55;;;;;;;3.49;100.00;99231.41;1032097;28;20467;-79
2021/12/08 02:51:11;;;;;;;7.85;4.15;;;;;;;3.52;100.00;99231.00;1030102;28;20800;-79
2021/12/08 02:51:42;;;;;;;6.57;4.05;;;;;;;3.49;100.00;99235.88;1031771;28;20445;-79
2021/12/08 02:52:15;;;;;;;10.10;4.90;;;;;;;3.55;100.00;99224.50;1034641;28;20835;-79
2021/12/08 02:52:47;;;;;;;5.82;4.35;;;;;;;3.54;100.00;99238.69;1032333;28;20460;-76
2021/12/08 02:53:19;;;;;;;10.57;5.00;;;;;;;3.52;100.00;99236.25;1034082;28;20457;-79
2021/12/08 02:53:50;;;;;;;16.73;5.13;;;;;;;3.52;100.00;99232.81;1035155;28;20574;-79
2021/12/08 02:54:22;;;;;;;7.15;4.22;;;;;;;3.52;100.00;99230.19;1036045;28;20487;-79
2021/12/08 02:54:54;;;;;;;7.18;4.15;;;;;;;3.52;100.00;99235.44;1038221;28;21031;-79
2021/12/08 02:55:27;;;;;;;10.13;4.60;;;;;;;3.51;100.00;99231.22;1032475;28;20469;-79
2021/12/08 02:55:59;;;;;;;9.55;4.80;;;;;;;3.53;100.00;99242.34;1036206;28;20483;-78